createdAt,value
2022-09-03T00:01:14.801Z,15.32
2022-09-03T00:05:34.538Z,15.26
2022-09-03T00:09:45.676Z,15.20
2022-09-03T00:13:59.645Z,15.17
2022-09-03T00:18:09.967Z,15.17
2022-09-03T00:22:21.009Z,15.16
2022-09-03T00:26:31.946Z,15.13
2022-09-03T00:30:41.005Z,15.05
2022-09-03T00:34:52.636Z,14.98
2022-09-03T00:39:02.470Z,14.91
2022-09-03T00:43:19.864Z,14.83
2022-09-03T00:47:34.202Z,14.81
2022-09-03T00:51:46.732Z,14.78
2022-09-03T00:55:58.910Z,14.77
2022-09-03T01:00:11.520Z,14.75
2022-09-03T01:04:30.226Z,14.71
2022-09-03T01:08:58.157Z,14.64
2022-09-03T01:13:11.380Z,14.56
2022-09-03T01:17:27.528Z,14.52
2022-09-03T01:21:54.468Z,14.44
2022-09-03T01:26:11.365Z,14.35
2022-09-03T01:30:24.297Z,14.27
2022-09-03T01:34:43.652Z,14.19
2022-09-03T01:38:55.357Z,14.12
2022-09-03T01:43:19.126Z,14.02
2022-09-03T01:47:34.162Z,13.97
2022-09-03T01:51:43.227Z,13.92
2022-09-03T01:56:00.202Z,13.82
2022-09-03T02:00:13.241Z,13.73
2022-09-03T02:04:25.079Z,13.60
2022-09-03T02:08:32.857Z,13.47
2022-09-03T02:12:43.450Z,13.36
2022-09-03T02:16:51.419Z,13.24
2022-09-03T02:21:00.765Z,13.15
2022-09-03T02:25:11.430Z,13.03
2022-09-03T02:29:20.246Z,12.93
2022-09-03T02:33:28.446Z,12.86
2022-09-03T02:37:36.472Z,12.79
2022-09-03T02:41:44.869Z,12.71
2022-09-03T02:45:57.200Z,12.60
2022-09-03T02:50:06.430Z,12.45
2022-09-03T02:54:20.219Z,12.33
2022-09-03T02:58:28.896Z,12.23
2022-09-03T03:02:37.267Z,12.09
2022-09-03T03:06:47.744Z,11.98
2022-09-03T03:10:58.953Z,11.87
2022-09-03T03:15:07.911Z,11.77
2022-09-03T03:19:15.264Z,11.69
2022-09-03T03:23:23.897Z,11.61
2022-09-03T03:27:31.922Z,11.53
2022-09-03T03:31:41.355Z,11.55
2022-09-03T03:35:49.972Z,11.52
2022-09-03T03:39:58.236Z,11.45
2022-09-03T03:44:08.727Z,11.38
2022-09-03T03:48:16.711Z,11.31
2022-09-03T03:52:26.195Z,11.24
2022-09-03T03:56:34.422Z,11.22
2022-09-03T04:00:46.236Z,11.21
2022-09-03T04:04:54.157Z,11.26
2022-09-03T04:09:02.270Z,11.26
2022-09-03T04:13:10.359Z,11.25
2022-09-03T04:17:22.081Z,11.32
2022-09-03T04:21:34.159Z,11.24
2022-09-03T04:25:45.279Z,11.10
2022-09-03T04:29:53.094Z,10.96
2022-09-03T04:34:02.259Z,10.87
2022-09-03T04:38:11.296Z,10.81
2022-09-03T04:42:19.320Z,10.77
2022-09-03T04:46:30.480Z,10.77
2022-09-03T04:50:38.395Z,10.86
2022-09-03T04:54:46.308Z,10.92
2022-09-03T04:58:58.668Z,10.92
2022-09-03T05:03:06.407Z,10.94
2022-09-03T05:07:15.225Z,11.04
2022-09-03T05:11:23.286Z,11.07
2022-09-03T05:15:31.628Z,11.14
2022-09-03T05:19:39.612Z,11.25
2022-09-03T05:23:48.895Z,11.41
2022-09-03T05:27:57.806Z,11.61
2022-09-03T05:32:08.150Z,11.79
2022-09-03T05:36:19.762Z,11.97
2022-09-03T05:40:27.605Z,12.16
2022-09-03T05:44:37.012Z,12.38
2022-09-03T05:48:45.022Z,12.54
2022-09-03T05:52:53.150Z,12.73
2022-09-03T05:57:01.303Z,12.98
2022-09-03T06:01:16.145Z,13.24
2022-09-03T06:05:25.073Z,13.46
2022-09-03T06:09:33.141Z,13.64
2022-09-03T06:13:41.258Z,13.82
2022-09-03T06:17:49.718Z,14.02
2022-09-03T06:21:57.464Z,14.14
2022-09-03T06:26:07.492Z,14.18
2022-09-03T06:30:17.023Z,14.10
2022-09-03T06:34:27.358Z,14.12
2022-09-03T06:38:36.557Z,14.24
2022-09-03T06:42:46.651Z,14.40
2022-09-03T06:46:54.984Z,14.53
2022-09-03T06:51:04.332Z,14.59
2022-09-03T06:55:13.227Z,14.60
2022-09-03T06:59:20.899Z,14.65
2022-09-03T07:03:30.087Z,14.71
2022-09-03T07:07:39.021Z,14.82
2022-09-03T07:11:50.035Z,14.97
2022-09-03T07:16:04.667Z,15.15
2022-09-03T07:20:13.203Z,15.36
2022-09-03T07:24:22.594Z,15.59
2022-09-03T07:28:32.262Z,15.78
2022-09-03T07:32:41.169Z,15.92
2022-09-03T07:36:51.981Z,16.08
2022-09-03T07:41:03.896Z,16.22
2022-09-03T07:45:12.579Z,16.24
2022-09-03T07:49:21.664Z,16.34
2022-09-03T07:53:30.031Z,16.46
2022-09-03T07:57:37.376Z,16.61
2022-09-03T08:01:45.216Z,16.74
2022-09-03T08:05:53.401Z,16.92
2022-09-03T08:10:01.891Z,17.17
2022-09-03T08:14:12.623Z,17.43
2022-09-03T08:18:23.437Z,17.69
2022-09-03T08:22:32.575Z,17.84
2022-09-03T08:26:42.466Z,17.98
2022-09-03T08:30:51.436Z,18.17
2022-09-03T08:35:00.012Z,18.31
2022-09-03T08:39:11.023Z,18.46
2022-09-03T08:43:20.861Z,18.52
2022-09-03T08:47:34.294Z,18.61
2022-09-03T08:51:45.352Z,18.68
2022-09-03T08:55:56.870Z,18.77
2022-09-03T09:00:06.149Z,18.89
2022-09-03T09:04:26.430Z,18.93
2022-09-03T09:08:39.760Z,19.02
2022-09-03T09:13:01.628Z,19.09
2022-09-03T09:17:19.677Z,19.17
2022-09-03T09:21:31.471Z,19.26
2022-09-03T09:25:47.353Z,19.35
2022-09-03T09:29:56.175Z,19.50
2022-09-03T09:34:09.049Z,19.68
2022-09-03T09:38:17.687Z,19.82
2022-09-03T09:42:26.584Z,19.88
2022-09-03T09:46:39.691Z,19.94
2022-09-03T09:50:50.798Z,20.00
2022-09-03T09:55:13.253Z,20.05
2022-09-03T09:59:22.409Z,20.12
2022-09-03T10:03:31.537Z,20.16
2022-09-03T10:07:40.675Z,20.18
2022-09-03T10:11:52.167Z,20.14
2022-09-03T10:16:04.849Z,20.10
2022-09-03T10:20:32.577Z,20.14
2022-09-03T10:24:52.745Z,20.17
2022-09-03T10:29:03.902Z,20.23
2022-09-03T10:33:15.849Z,20.21
2022-09-03T10:37:31.237Z,20.28
2022-09-03T10:41:48.172Z,20.45
2022-09-03T10:46:06.369Z,20.61
2022-09-03T10:50:18.165Z,20.77
2022-09-03T10:54:40.200Z,20.90
2022-09-03T10:59:00.747Z,21.07
2022-09-03T11:03:39.399Z,21.22
2022-09-03T11:07:51.003Z,21.30
2022-09-03T11:12:02.266Z,21.37
2022-09-03T11:16:15.422Z,21.46
2022-09-03T11:20:25.428Z,21.44
2022-09-03T11:24:35.383Z,21.50
2022-09-03T11:28:50.329Z,21.68
2022-09-03T11:33:00.826Z,21.92
2022-09-03T11:37:20.365Z,22.13
2022-09-03T11:41:30.062Z,21.99
2022-09-03T11:45:42.346Z,21.82
2022-09-03T11:49:51.858Z,22.00
2022-09-03T11:54:02.202Z,22.19
2022-09-03T11:58:25.078Z,22.07
2022-09-03T12:02:34.880Z,21.92
2022-09-03T12:07:07.946Z,22.03
2022-09-03T12:11:37.287Z,22.12
2022-09-03T12:16:18.582Z,21.93
2022-09-03T12:20:30.956Z,21.70
2022-09-03T12:24:38.954Z,21.56
2022-09-03T12:28:49.482Z,21.56
2022-09-03T12:33:08.699Z,21.71
2022-09-03T12:42:04.283Z,21.80
2022-09-03T12:46:18.514Z,21.78
2022-09-03T12:50:27.446Z,22.16
2022-09-03T12:54:35.617Z,22.67
2022-09-03T12:58:50.904Z,23.02
2022-09-03T13:03:02.356Z,22.86
2022-09-03T13:07:15.501Z,22.76
2022-09-03T13:11:24.926Z,23.03
2022-09-03T13:15:33.262Z,23.26
2022-09-03T13:19:48.848Z,23.21
2022-09-03T13:24:15.310Z,23.42
2022-09-03T13:28:31.951Z,23.49
2022-09-03T13:32:46.505Z,23.42
2022-09-03T13:36:58.368Z,23.45
2022-09-03T13:41:20.141Z,23.30
2022-09-03T13:45:39.345Z,23.07
2022-09-03T13:50:13.636Z,22.71
2022-09-03T13:54:47.699Z,22.43
2022-09-03T13:58:57.836Z,22.26
2022-09-03T14:03:16.918Z,22.19
2022-09-03T14:07:27.559Z,22.23
2022-09-03T14:11:43.952Z,22.39
2022-09-03T14:15:59.708Z,22.66
2022-09-03T14:20:10.163Z,22.95
2022-09-03T14:24:24.465Z,23.21
2022-09-03T14:28:37.880Z,23.31
2022-09-03T14:32:52.446Z,23.29
2022-09-03T14:37:07.472Z,23.20
2022-09-03T14:41:30.940Z,23.25
2022-09-03T14:46:17.238Z,23.33
2022-09-03T14:50:36.117Z,23.52
2022-09-03T14:55:04.835Z,23.63
2022-09-03T14:59:32.551Z,23.71
2022-09-03T15:04:16.543Z,23.53
2022-09-03T15:08:37.239Z,23.29
2022-09-03T15:12:46.896Z,23.25
2022-09-03T15:17:01.561Z,23.24
2022-09-03T15:21:18.924Z,23.14
2022-09-03T15:25:33.513Z,23.05
2022-09-03T15:29:54.781Z,23.03
2022-09-03T15:34:10.597Z,22.99
2022-09-03T15:38:26.842Z,22.94
2022-09-03T15:42:34.861Z,22.80
2022-09-03T15:46:52.460Z,22.69
2022-09-03T15:51:14.839Z,22.56
2022-09-03T15:55:35.345Z,22.45
2022-09-03T15:59:48.619Z,22.34
2022-09-03T16:04:09.947Z,22.17
2022-09-03T16:08:23.745Z,22.01
2022-09-03T16:12:36.226Z,21.88
2022-09-03T16:16:59.592Z,21.79
2022-09-03T16:21:16.630Z,21.62
2022-09-03T16:25:32.175Z,21.45
2022-09-03T16:29:41.461Z,21.35
2022-09-03T16:38:49.106Z,21.17
2022-09-03T16:43:38.857Z,21.01
2022-09-03T16:48:06.523Z,20.83
2022-09-03T16:52:37.635Z,20.71
2022-09-03T16:57:00.578Z,20.57
2022-09-03T17:01:18.999Z,20.37
2022-09-03T17:05:57.275Z,20.18
2022-09-03T17:10:16.089Z,19.97
2022-09-03T17:14:37.181Z,19.78
2022-09-03T17:18:53.777Z,19.68
2022-09-03T17:23:12.252Z,19.65
2022-09-03T17:27:37.341Z,19.64
2022-09-03T17:31:51.604Z,19.60
2022-09-03T17:36:06.680Z,19.53
2022-09-03T17:40:26.887Z,19.45
2022-09-03T17:44:48.121Z,19.36
2022-09-03T17:48:56.362Z,19.28
2022-09-03T17:53:11.745Z,19.19
2022-09-03T17:57:25.026Z,19.07
2022-09-03T18:01:37.339Z,18.95
2022-09-03T18:05:51.633Z,18.82
2022-09-03T18:10:09.288Z,18.71
2022-09-03T18:14:24.544Z,18.62
2022-09-03T18:18:34.021Z,18.53
2022-09-03T18:23:08.321Z,18.43
2022-09-03T18:27:36.925Z,18.35
2022-09-03T18:32:02.942Z,18.26
2022-09-03T18:36:28.858Z,18.16
2022-09-03T18:41:02.190Z,18.03
2022-09-03T18:45:42.269Z,17.91
2022-09-03T18:50:24.375Z,17.76
2022-09-03T18:55:08.621Z,17.65
2022-09-03T18:59:45.672Z,17.52
2022-09-03T19:04:19.661Z,17.35
2022-09-03T19:08:48.231Z,17.20
2022-09-03T19:13:30.007Z,17.07
2022-09-03T19:18:09.128Z,16.84
2022-09-03T19:22:37.243Z,16.70
2022-09-03T19:27:24.821Z,16.63
2022-09-03T19:32:04.590Z,16.52
2022-09-03T19:36:38.177Z,16.41
2022-09-03T19:41:24.322Z,16.34
2022-09-03T19:45:57.262Z,16.30
2022-09-03T19:50:31.065Z,16.25
2022-09-03T19:54:57.737Z,16.22
2022-09-03T19:59:25.634Z,16.18
2022-09-03T20:03:51.064Z,16.10
2022-09-03T20:08:16.995Z,16.03
2022-09-03T20:12:28.191Z,16.02
2022-09-03T20:16:40.670Z,16.01
2022-09-03T20:20:53.464Z,15.95
2022-09-03T20:25:17.915Z,15.89
2022-09-03T20:29:37.780Z,15.86
2022-09-03T20:33:55.533Z,15.87
2022-09-03T20:38:11.793Z,15.85
2022-09-03T20:42:37.709Z,15.77
2022-09-03T20:46:58.727Z,15.67
2022-09-03T20:51:12.007Z,15.62
2022-09-03T20:55:23.361Z,15.57
2022-09-03T20:59:39.804Z,15.49
2022-09-03T21:03:51.206Z,15.36
2022-09-03T21:08:11.709Z,15.25
2022-09-03T21:12:25.771Z,15.12
2022-09-03T21:16:42.444Z,14.99
2022-09-03T21:20:57.199Z,14.87
2022-09-03T21:25:08.428Z,14.80
2022-09-03T21:29:23.947Z,14.75
2022-09-03T21:33:36.428Z,14.70
2022-09-03T21:37:49.303Z,14.61
2022-09-03T21:41:59.552Z,14.51
2022-09-03T21:46:10.163Z,14.40
2022-09-03T21:50:21.439Z,14.29
2022-09-03T21:54:31.751Z,14.22
2022-09-03T21:58:51.501Z,14.17
2022-09-03T22:02:59.888Z,14.14
2022-09-03T22:07:13.698Z,14.13
2022-09-03T22:11:25.205Z,14.06
2022-09-03T22:15:33.655Z,13.97
2022-09-03T22:19:42.870Z,13.89
2022-09-03T22:24:04.665Z,13.84
2022-09-03T22:28:16.092Z,13.80
2022-09-03T22:32:33.923Z,13.82
2022-09-03T22:36:47.607Z,13.79
2022-09-03T22:40:59.935Z,13.72
2022-09-03T22:45:33.772Z,13.67
2022-09-03T22:49:46.887Z,13.65
2022-09-03T22:54:10.904Z,13.64
2022-09-03T22:58:22.424Z,13.61
2022-09-03T23:02:32.668Z,13.57
2022-09-03T23:06:44.157Z,13.51
2022-09-03T23:11:01.143Z,13.40
2022-09-03T23:15:12.010Z,13.37
2022-09-03T23:23:33.403Z,13.31
2022-09-03T23:27:44.959Z,13.31
2022-09-03T23:31:54.840Z,13.27
2022-09-03T23:36:08.481Z,13.27
2022-09-03T23:40:28.429Z,13.25
2022-09-03T23:44:46.166Z,13.24
2022-09-03T23:49:25.407Z,13.22
2022-09-03T23:53:41.193Z,13.16
2022-09-03T23:57:57.286Z,13.10
